Mitsukawa Maru — JD2495 — position and weather

sailwx.info

Track history (hours):
 
Tides and Currents Weather Stations Pressure Air Temp Water Temp Dewpoint Dewpoint Depression Visibility Wind Speed Wind Dir Waves Ship Positions

Mitsukawa Maru

Last reported at 2016-Jun-24 13:05 UTC. Time now 2016-Jun-27 18:36 UTC.
Position N 34°36' E 134°54'.

Length 105 m; draft 4.7 m.

Type: Cargo ship. MMSI: 431000326.

Date/timePositionNaut miles runAvg speedWind from/ knotsBaromVisibWave heightAir tempDewpointWater temp
2016-Jun-24 13:05N 34°36' E 134°54'814.9
2016-Jun-24 12:33N 34°36' E 135°04'1414.2
2016-Jun-24 11:33N 34°22' E 135°01'1414.0
2016-Jun-24 10:33N 34°08' E 134°59'23610.6
2016-Jun-23 12:18N 35°05' E 139°37'1013.4
2016-Jun-23 11:34N 35°11' E 139°46'1212.4
2016-Jun-23 10:34N 35°24' E 139°42'1414.0
2016-Jun-23 09:33N 35°32' E 139°56'9 8.9
2016-Jun-23 08:33N 35°35' E 140°07'0 0.0
2016-Jun-23 07:31N 35°35' E 140°07'0 0.0
2016-Jun-23 05:31N 35°35' E 140°07'0 0.0
2016-Jun-23 04:25N 35°35' E 140°07'0 0.0
2016-Jun-23 03:31N 35°35' E 140°07'0 0.2
2016-Jun-23 02:33N 35°35' E 140°06'5 5.2
2016-Jun-23 01:33N 35°35' E 140°00'0 0.0
2016-Jun-23 00:28N 35°35' E 140°00'0 0.0
2016-Jun-22 23:31N 35°35' E 140°00'0 0.0
2016-Jun-22 22:31N 35°35' E 140°00'0 0.0
2016-Jun-22 21:28N 35°35' E 140°00'0 0.0
2016-Jun-22 20:28N 35°35' E 140°00'0 0.0
2016-Jun-22 19:31N 35°35' E 140°00'0 0.0
2016-Jun-22 18:28N 35°35' E 140°00'0 0.0
2016-Jun-22 17:31N 35°35' E 140°00'0 0.1
2016-Jun-22 16:31N 35°35' E 139°60'8 8.3
2016-Jun-22 15:33N 35°29' E 139°53'1211.9
2016-Jun-22 14:34N 35°20' E 139°44'1110.7
2016-Jun-22 13:33N 35°09' E 139°46'  
2016-Jun-20 08:07N 33°60' E 134°54'812.8
2016-Jun-20 07:31N 34°07' E 134°56'1414.4
2016-Jun-20 06:33N 34°21' E 134°59'1413.7
2016-Jun-20 05:33N 34°34' E 135°03'  
Track history (hours):
 
Tides and Currents Weather Stations Pressure Air Temp Water Temp Dewpoint Dewpoint Depression Visibility Wind Speed Wind Dir Waves Ship Positions

Mitsukawa Maru

Last reported at 2016-Jun-24 13:05 UTC. Time now 2016-Jun-27 18:36 UTC.
Position N 34°36' E 134°54'.

Length 105 m; draft 4.7 m.

Type: Cargo ship. MMSI: 431000326.

Date/timePositionNaut miles runAvg speedWind from/ knotsBaromVisibWave heightAir tempDewpointWater temp
2016-Jun-24 13:05N 34°36' E 134°54'814.9
2016-Jun-24 12:33N 34°36' E 135°04'1414.2
2016-Jun-24 11:33N 34°22' E 135°01'1414.0
2016-Jun-24 10:33N 34°08' E 134°59'23610.6
2016-Jun-23 12:18N 35°05' E 139°37'1013.4
2016-Jun-23 11:34N 35°11' E 139°46'1212.4
2016-Jun-23 10:34N 35°24' E 139°42'1414.0
2016-Jun-23 09:33N 35°32' E 139°56'9 8.9
2016-Jun-23 08:33N 35°35' E 140°07'0 0.0
2016-Jun-23 07:31N 35°35' E 140°07'0 0.0
2016-Jun-23 05:31N 35°35' E 140°07'0 0.0
2016-Jun-23 04:25N 35°35' E 140°07'0 0.0
2016-Jun-23 03:31N 35°35' E 140°07'0 0.2
2016-Jun-23 02:33N 35°35' E 140°06'5 5.2
2016-Jun-23 01:33N 35°35' E 140°00'0 0.0
2016-Jun-23 00:28N 35°35' E 140°00'0 0.0
2016-Jun-22 23:31N 35°35' E 140°00'0 0.0
2016-Jun-22 22:31N 35°35' E 140°00'0 0.0
2016-Jun-22 21:28N 35°35' E 140°00'0 0.0
2016-Jun-22 20:28N 35°35' E 140°00'0 0.0
2016-Jun-22 19:31N 35°35' E 140°00'0 0.0
2016-Jun-22 18:28N 35°35' E 140°00'0 0.0
2016-Jun-22 17:31N 35°35' E 140°00'0 0.1
2016-Jun-22 16:31N 35°35' E 139°60'8 8.3
2016-Jun-22 15:33N 35°29' E 139°53'1211.9
2016-Jun-22 14:34N 35°20' E 139°44'1110.7
2016-Jun-22 13:33N 35°09' E 139°46'  
2016-Jun-20 08:07N 33°60' E 134°54'812.8
2016-Jun-20 07:31N 34°07' E 134°56'1414.4
2016-Jun-20 06:33N 34°21' E 134°59'1413.7
2016-Jun-20 05:33N 34°34' E 135°03'  

Dump ship's entire track history